Terminal Aerodrome Forecast
Issued by NWS Dodge City, KS

Home | Current Version | Previous Version | Text Only | Print | Product List | Glossary On
Versions: 1 2 3 4 5 6 7 8 9 10 11 12 13 14 15 16 17 18
000
FTUS43 KDDC 282320
TAFDDC
TAF
KDDC 282320Z 2900/2924 20013G20KT P6SM SKC
     FM290400 16016G24KT P6SM SCT250 WS020/19050KT
     FM291300 19016G24KT P6SM BKN150
     FM291600 32012KT P6SM FEW200=

USA.gov is the U.S. government's official web portal to all federal, state and local government web resources and services.